Time;durP1;ratioP1;P1;durP2;ratioP2;P2;SDS_P1;SDS_P2;PMS_P1;PMS_P2;Temp;Humidity;BMP_temperature;BMP_pressure;BME280_temperature;BME280_humidity;BME280_pressure;Samples;Min_cycle;Max_cycle;Signal;HPM_P1;HPM_P2
2022/03/08 00:00:29;;;;;;;41.47;21.20;;;1.30;99.90;;;;;;5013559;28;20046;-59
2022/03/08 00:03:33;;;;;;;56.22;25.75;;;1.40;99.90;;;;;;5013758;28;20053;-59
2022/03/08 00:06:37;;;;;;;47.47;23.75;;;1.30;99.90;;;;;;5013486;28;20045;-59
2022/03/08 00:09:43;;;;;;;49.85;23.58;;;0.80;99.90;;;;;;5013680;28;20044;-59
2022/03/08 00:12:48;;;;;;;60.78;29.27;;;0.70;99.90;;;;;;5012803;28;20532;-59
2022/03/08 00:15:51;;;;;;;46.63;24.05;;;0.70;99.90;;;;;;5012543;28;20114;-60
2022/03/08 00:18:55;;;;;;;65.35;27.45;;;0.70;99.90;;;;;;5012877;28;20052;-59
2022/03/08 00:21:59;;;;;;;45.15;23.67;;;0.80;99.90;;;;;;5012988;28;20239;-59
2022/03/08 00:25:05;;;;;;;56.75;25.52;;;0.90;99.90;;;;;;5013046;28;20041;-59
2022/03/08 00:28:10;;;;;;;48.58;25.65;;;0.80;99.90;;;;;;5012803;28;20045;-60
2022/03/08 00:31:14;;;;;;;56.45;25.92;;;0.80;99.90;;;;;;5012568;28;20044;-60
2022/03/08 00:34:18;;;;;;;60.63;29.08;;;0.60;99.90;;;;;;5013087;28;20045;-60
2022/03/08 00:37:21;;;;;;;78.97;29.55;;;0.50;99.90;;;;;;5011737;28;20501;-59
2022/03/08 00:40:26;;;;;;;56.38;29.35;;;0.40;99.90;;;;;;5012971;28;20048;-59
2022/03/08 00:43:31;;;;;;;48.22;25.38;;;0.30;99.90;;;;;;5012692;28;20503;-59
2022/03/08 00:46:35;;;;;;;49.03;23.90;;;0.50;99.90;;;;;;5012619;28;20048;-60
2022/03/08 00:49:40;;;;;;;48.08;25.52;;;0.60;99.90;;;;;;5012409;28;20072;-59
2022/03/08 00:52:48;;;;;;;47.33;25.42;;;0.60;99.90;;;;;;5011738;28;20053;-59
2022/03/08 00:55:53;;;;;;;46.63;23.55;;;0.60;99.90;;;;;;5011668;28;20049;-59
2022/03/08 00:58:57;;;;;;;46.25;23.27;;;0.60;99.90;;;;;;5011320;28;20397;-59
2022/03/08 01:02:02;;;;;;;51.15;24.83;;;0.60;99.90;;;;;;5022883;28;20045;-59
2022/03/08 01:05:07;;;;;;;50.63;27.00;;;0.50;99.90;;;;;;5012617;28;20045;-59
2022/03/08 01:08:11;;;;;;;66.75;34.38;;;0.40;99.90;;;;;;5011908;28;20484;-60
2022/03/08 01:11:15;;;;;;;39.88;21.15;;;0.40;99.90;;;;;;5012066;28;20043;-59
2022/03/08 01:14:20;;;;;;;52.85;26.35;;;0.40;99.90;;;;;;5012490;28;20048;-59
2022/03/08 01:17:24;;;;;;;41.83;21.63;;;0.40;99.90;;;;;;5012425;28;20068;-59
2022/03/08 01:20:29;;;;;;;242.10;89.53;;;0.40;99.90;;;;;;5011837;28;20066;-59
2022/03/08 01:23:34;;;;;;;153.57;58.17;;;0.40;99.90;;;;;;5012423;28;20076;-59
2022/03/08 01:26:38;;;;;;;53.58;25.27;;;0.50;99.90;;;;;;5012123;28;20053;-60
2022/03/08 01:29:42;;;;;;;39.33;20.20;;;0.50;99.90;;;;;;5011785;28;20396;-59
2022/03/08 01:32:46;;;;;;;40.05;21.60;;;0.50;99.90;;;;;;5011470;28;20052;-59
2022/03/08 01:35:51;;;;;;;39.25;20.15;;;0.60;99.90;;;;;;5011985;28;20061;-60
2022/03/08 01:38:55;;;;;;;40.08;20.15;;;0.60;99.90;;;;;;5012087;28;20102;-59
2022/03/08 01:42:06;;;;;;;47.38;26.23;;;0.60;99.90;;;;;;5010642;28;20525;-59
2022/03/08 01:45:11;;;;;;;41.75;21.65;;;0.70;99.90;;;;;;5011187;28;20052;-59
2022/03/08 01:48:16;;;;;;;36.45;18.25;;;0.60;99.90;;;;;;5022010;28;20421;-59
2022/03/08 01:51:21;;;;;;;39.10;20.15;;;0.60;99.90;;;;;;5010530;28;20053;-60
2022/03/08 01:54:26;;;;;;;32.00;18.55;;;0.70;99.90;;;;;;5011526;28;20044;-60
2022/03/08 01:57:31;;;;;;;35.63;18.65;;;0.80;99.90;;;;;;5011710;28;20040;-59
2022/03/08 02:00:35;;;;;;;35.17;17.40;;;0.90;99.90;;;;;;5010527;28;20053;-59
2022/03/08 02:03:39;;;;;;;31.23;18.00;;;1.10;99.90;;;;;;5011235;28;20045;-58
2022/03/08 02:06:45;;;;;;;36.08;18.45;;;1.50;99.90;;;;;;5011267;28;20049;-59
2022/03/08 02:09:49;;;;;;;32.65;16.83;;;1.40;99.90;;;;;;5010026;28;20053;-60
2022/03/08 02:12:53;;;;;;;41.80;17.20;;;1.50;99.90;;;;;;5010783;28;20044;-58
2022/03/08 02:15:57;;;;;;;35.55;18.63;;;1.70;99.90;;;;;;5010115;28;20053;-59
2022/03/08 02:19:01;;;;;;;34.90;17.90;;;2.00;99.90;;;;;;5010899;28;20049;-59
2022/03/08 02:22:05;;;;;;;41.00;19.45;;;2.00;99.90;;;;;;5010551;28;20037;-59
2022/03/08 02:25:11;;;;;;;36.95;19.60;;;1.70;99.90;;;;;;5011007;28;20052;-59
2022/03/08 02:28:15;;;;;;;37.58;19.00;;;1.50;99.90;;;;;;5011089;28;20044;-58
2022/03/08 02:31:19;;;;;;;37.42;19.10;;;1.50;99.90;;;;;;5010074;28;20049;-59
2022/03/08 02:34:23;;;;;;;44.83;21.15;;;1.70;99.90;;;;;;5010545;28;20048;-59
2022/03/08 02:37:36;;;;;;;35.50;18.92;;;1.90;99.90;;;;;;5010932;28;21136;-60
2022/03/08 02:40:43;;;;;;;44.00;19.48;;;1.90;99.90;;;;;;5010208;28;20056;-60
2022/03/08 02:43:47;;;;;;;37.80;19.60;;;2.20;99.90;;;;;;5010765;28;20397;-59
2022/03/08 02:46:52;;;;;;;39.58;20.67;;;2.30;99.90;;;;;;5010651;28;20069;-60
2022/03/08 02:49:56;;;;;;;39.60;19.90;;;2.30;99.90;;;;;;5010191;28;20044;-61
2022/03/08 02:53:01;;;;;;;43.45;20.58;;;2.30;99.90;;;;;;5010603;28;20044;-59
2022/03/08 02:56:05;;;;;;;42.92;20.17;;;2.20;99.90;;;;;;5010565;28;20049;-60
2022/03/08 02:59:09;;;;;;;37.75;18.42;;;2.20;99.90;;;;;;5010182;28;20500;-59
2022/03/08 03:02:13;;;;;;;35.60;18.80;;;2.10;99.90;;;;;;5009801;28;20041;-59
2022/03/08 03:05:18;;;;;;;40.13;20.88;;;2.00;99.90;;;;;;5010304;28;20049;-60
2022/03/08 03:08:22;;;;;;;35.92;20.98;;;1.70;99.90;;;;;;5010146;28;20041;-59
2022/03/08 03:11:26;;;;;;;43.63;21.10;;;1.60;99.90;;;;;;5009433;28;20060;-59
2022/03/08 03:14:31;;;;;;;39.75;20.35;;;1.60;99.90;;;;;;5010055;28;20045;-58
2022/03/08 03:17:35;;;;;;;42.28;19.73;;;1.70;99.90;;;;;;5010559;28;20052;-59
2022/03/08 03:20:39;;;;;;;37.15;19.15;;;1.70;99.90;;;;;;5010621;28;20041;-60
2022/03/08 03:23:43;;;;;;;38.70;19.77;;;1.80;99.90;;;;;;5013580;28;20073;-59
2022/03/08 03:26:47;;;;;;;35.83;17.92;;;1.70;99.90;;;;;;5014106;28;20045;-59
2022/03/08 03:29:52;;;;;;;30.67;17.30;;;1.60;99.90;;;;;;5013615;28;20053;-59
2022/03/08 03:32:56;;;;;;;31.38;15.75;;;1.60;99.90;;;;;;5013805;28;20496;-60
2022/03/08 03:36:01;;;;;;;25.67;14.13;;;1.60;99.90;;;;;;5014174;28;20053;-60
2022/03/08 03:39:06;;;;;;;31.55;14.23;;;1.60;99.90;;;;;;5014124;28;20046;-60
2022/03/08 03:42:12;;;;;;;27.35;14.65;;;1.70;99.60;;;;;;5013541;28;20048;-59
2022/03/08 03:45:16;;;;;;;31.52;15.48;;;1.80;99.90;;;;;;5013987;28;20539;-59
2022/03/08 03:48:20;;;;;;;25.88;13.35;;;1.70;99.90;;;;;;5012973;28;20069;-58
2022/03/08 03:51:23;;;;;;;24.38;13.05;;;1.60;99.20;;;;;;5013156;28;20041;-59
2022/03/08 03:54:28;;;;;;;35.88;13.75;;;1.60;98.20;;;;;;5013679;28;20516;-60
2022/03/08 03:57:33;;;;;;;20.13;11.05;;;1.70;98.70;;;;;;5023997;28;20056;-59
2022/03/08 04:00:36;;;;;;;28.65;14.35;;;1.70;97.00;;;;;;5013019;28;20041;-60
2022/03/08 04:03:42;;;;;;;24.27;12.25;;;1.70;96.90;;;;;;5013517;28;20536;-58
2022/03/08 04:06:46;;;;;;;16.90;10.13;;;1.70;97.10;;;;;;5013296;28;20056;-59
2022/03/08 04:09:50;;;;;;;20.50;10.18;;;1.70;96.60;;;;;;5013453;28;20049;-59
2022/03/08 04:12:54;;;;;;;19.38;10.35;;;1.80;96.10;;;;;;5013216;28;20041;-60
2022/03/08 04:15:58;;;;;;;22.35;11.90;;;1.90;96.10;;;;;;5013252;28;20065;-58
2022/03/08 04:19:02;;;;;;;20.35;9.88;;;2.00;96.40;;;;;;5013470;28;20101;-59
2022/03/08 04:22:06;;;;;;;25.70;10.32;;;2.00;96.20;;;;;;5012491;28;20045;-59
2022/03/08 04:25:11;;;;;;;19.45;10.57;;;2.00;96.40;;;;;;5013523;28;20053;-59
2022/03/08 04:28:16;;;;;;;22.75;10.90;;;2.00;96.40;;;;;;5013559;28;20045;-58
2022/03/08 04:31:20;;;;;;;26.08;11.68;;;2.10;96.30;;;;;;5012285;28;20389;-58
2022/03/08 04:34:24;;;;;;;23.63;10.98;;;2.00;96.70;;;;;;5013250;28;20053;-59
2022/03/08 04:37:28;;;;;;;22.75;10.73;;;2.10;96.90;;;;;;5013070;28;20500;-59
2022/03/08 04:40:32;;;;;;;22.50;11.80;;;2.00;96.70;;;;;;5023189;28;20053;-58
2022/03/08 04:43:37;;;;;;;20.63;11.30;;;2.10;96.80;;;;;;5023591;28;20060;-59
2022/03/08 04:46:41;;;;;;;20.73;9.88;;;2.10;96.90;;;;;;5012649;28;20069;-58
2022/03/08 04:49:46;;;;;;;20.35;10.77;;;1.90;96.30;;;;;;5012775;28;20385;-60
2022/03/08 04:52:50;;;;;;;23.35;11.32;;;2.00;96.70;;;;;;5012155;28;20504;-58
2022/03/08 04:55:54;;;;;;;27.13;13.27;;;1.90;96.70;;;;;;5023555;28;20045;-58
2022/03/08 04:58:58;;;;;;;19.38;10.35;;;1.90;97.20;;;;;;5023366;28;20400;-58
2022/03/08 05:02:03;;;;;;;18.90;9.43;;;2.00;96.30;;;;;;5012089;28;20049;-60
2022/03/08 05:05:08;;;;;;;18.05;9.63;;;2.10;96.10;;;;;;5012611;28;20508;-60
2022/03/08 05:08:14;;;;;;;22.55;10.80;;;2.10;95.90;;;;;;5022441;28;20045;-59
2022/03/08 05:11:18;;;;;;;15.68;9.40;;;2.00;95.80;;;;;;5011837;28;20049;-59
2022/03/08 05:14:21;;;;;;;16.63;9.07;;;2.00;95.50;;;;;;5012131;28;20052;-60
2022/03/08 05:17:26;;;;;;;17.63;10.15;;;2.00;95.70;;;;;;5012380;28;20045;-59
2022/03/08 05:20:30;;;;;;;17.63;9.18;;;2.00;96.00;;;;;;5011975;28;20052;-59
2022/03/08 05:23:34;;;;;;;20.40;9.98;;;2.00;96.00;;;;;;5011939;28;20037;-58
2022/03/08 05:26:38;;;;;;;21.95;10.02;;;1.90;96.50;;;;;;5012349;28;20064;-58
2022/03/08 05:29:43;;;;;;;19.45;10.20;;;1.90;97.00;;;;;;5011703;28;20041;-59
2022/03/08 05:32:47;;;;;;;17.02;9.55;;;2.00;96.00;;;;;;5011321;28;20048;-58
2022/03/08 05:35:51;;;;;;;16.73;9.30;;;2.00;95.70;;;;;;5011882;28;20036;-59
2022/03/08 05:38:55;;;;;;;19.73;9.68;;;2.00;95.80;;;;;;5011491;28;20113;-58
2022/03/08 05:41:59;;;;;;;17.13;10.13;;;2.10;95.30;;;;;;5011176;28;20260;-59
2022/03/08 05:45:03;;;;;;;22.13;11.07;;;2.00;96.60;;;;;;5011243;28;20504;-59
2022/03/08 05:48:08;;;;;;;20.08;10.15;;;1.60;98.10;;;;;;5011698;28;20069;-59
2022/03/08 05:51:11;;;;;;;20.95;11.25;;;1.30;98.60;;;;;;5011033;28;20052;-59
2022/03/08 05:54:16;;;;;;;21.58;10.75;;;1.00;99.70;;;;;;5011636;28;20044;-59
2022/03/08 05:57:20;;;;;;;32.25;12.13;;;0.70;99.90;;;;;;5011643;28;20048;-59
2022/03/08 06:00:24;;;;;;;33.22;12.52;;;0.70;99.90;;;;;;5011083;28;20049;-59
2022/03/08 06:03:28;;;;;;;21.13;11.45;;;0.60;99.90;;;;;;5011429;28;20045;-59
2022/03/08 06:06:32;;;;;;;29.00;11.23;;;0.60;99.90;;;;;;5011422;28;20064;-59
2022/03/08 06:09:37;;;;;;;22.25;11.60;;;0.60;99.90;;;;;;5011484;28;20524;-59
2022/03/08 06:12:41;;;;;;;24.02;11.15;;;0.60;99.90;;;;;;5010643;28;20044;-59
2022/03/08 06:15:45;;;;;;;35.10;13.73;;;0.70;99.90;;;;;;5011212;28;20064;-59
2022/03/08 06:18:49;;;;;;;20.55;11.75;;;0.70;99.90;;;;;;5011059;28;20131;-59
2022/03/08 06:21:54;;;;;;;21.38;10.85;;;0.80;99.90;;;;;;5010656;28;20045;-60
2022/03/08 06:24:58;;;;;;;24.83;11.48;;;0.80;99.90;;;;;;5011642;28;20053;-59
2022/03/08 06:28:02;;;;;;;18.90;9.93;;;1.20;99.90;;;;;;5011741;28;20417;-59
2022/03/08 06:31:06;;;;;;;18.70;9.50;;;3.50;99.90;;;;;;5010499;28;20497;-59
2022/03/08 06:34:11;;;;;;;13.80;7.72;;;6.70;97.80;;;;;;5010600;28;21219;-59
2022/03/08 06:37:15;;;;;;;16.77;8.25;;;9.30;93.70;;;;;;5010704;28;20528;-59
2022/03/08 06:40:18;;;;;;;17.55;7.63;;;11.00;90.40;;;;;;5010747;28;20045;-60
2022/03/08 06:43:22;;;;;;;12.73;6.65;;;12.40;84.60;;;;;;5010636;28;20049;-60
2022/03/08 06:46:26;;;;;;;25.50;8.50;;;13.20;81.50;;;;;;5010563;28;20052;-60
2022/03/08 06:49:30;;;;;;;15.32;7.03;;;14.20;76.90;;;;;;5010822;28;20056;-60
2022/03/08 06:52:34;;;;;;;12.10;7.25;;;15.30;73.70;;;;;;5010027;28;20045;-61
2022/03/08 06:55:38;;;;;;;13.00;6.78;;;15.90;70.50;;;;;;5009832;28;20070;-60
2022/03/08 06:58:42;;;;;;;12.90;7.47;;;16.60;69.30;;;;;;5010506;28;20063;-60
2022/03/08 07:01:46;;;;;;;16.50;7.55;;;17.40;66.60;;;;;;5011987;28;20396;-60
2022/03/08 07:04:50;;;;;;;11.48;6.78;;;18.10;64.30;;;;;;5028166;28;20048;-61
2022/03/08 07:07:54;;;;;;;10.73;7.20;;;18.40;62.40;;;;;;5029635;28;20044;-61
2022/03/08 07:10:58;;;;;;;10.75;7.07;;;18.90;60.80;;;;;;5026397;28;20037;-61
2022/03/08 07:14:04;;;;;;;10.63;6.72;;;19.00;60.30;;;;;;5023531;28;20412;-61
2022/03/08 07:17:08;;;;;;;10.88;6.18;;;19.40;58.90;;;;;;5028122;28;20397;-61
2022/03/08 07:20:13;;;;;;;9.20;6.13;;;19.60;58.10;;;;;;5027956;28;20052;-61
2022/03/08 07:23:18;;;;;;;9.70;6.00;;;19.80;57.20;;;;;;5025857;28;20380;-62
2022/03/08 07:26:24;;;;;;;9.13;6.10;;;19.90;56.30;;;;;;5026629;28;20052;-61
2022/03/08 07:29:28;;;;;;;8.07;6.00;;;19.10;56.20;;;;;;5025187;28;20072;-61
2022/03/08 07:32:32;;;;;;;12.82;6.15;;;18.10;56.50;;;;;;5025902;28;20053;-61
2022/03/08 07:35:38;;;;;;;7.63;5.88;;;17.70;57.60;;;;;;5027390;28;20037;-61
2022/03/08 07:38:42;;;;;;;8.70;6.03;;;18.30;57.40;;;;;;5025622;28;20079;-61
2022/03/08 07:41:45;;;;;;;10.02;5.93;;;19.30;56.50;;;;;;5022668;28;20057;-61
2022/03/08 07:44:49;;;;;;;9.48;5.65;;;19.80;55.20;;;;;;5025178;28;20044;-61
2022/03/08 07:47:53;;;;;;;8.70;6.57;;;20.30;53.50;;;;;;5025095;28;20243;-62
2022/03/08 07:50:59;;;;;;;9.95;5.88;;;20.40;53.50;;;;;;5024215;28;20041;-62
2022/03/08 07:54:05;;;;;;;6.55;4.90;;;20.90;52.60;;;;;;5024502;28;20041;-61
2022/03/08 07:57:09;;;;;;;11.05;5.53;;;21.30;52.40;;;;;;5026881;28;20040;-61
2022/03/08 08:00:13;;;;;;;6.88;5.38;;;21.40;51.70;;;;;;5024751;28;20064;-61
2022/03/08 08:03:17;;;;;;;7.35;5.25;;;20.50;50.30;;;;;;5029090;28;20044;-61
2022/03/08 08:06:23;;;;;;;9.32;5.45;;;21.50;51.70;;;;;;5021308;28;20041;-61
2022/03/08 08:09:27;;;;;;;7.45;5.20;;;21.80;50.90;;;;;;5028443;28;20040;-61
2022/03/08 08:12:31;;;;;;;6.68;4.93;;;22.40;49.80;;;;;;5026059;28;20056;-62
2022/03/08 08:15:37;;;;;;;6.45;4.65;;;21.90;49.30;;;;;;5032239;28;20388;-62
2022/03/08 08:18:41;;;;;;;12.50;5.25;;;22.00;49.30;;;;;;5027057;28;20496;-62
2022/03/08 08:21:45;;;;;;;7.47;5.90;;;22.20;48.70;;;;;;5031689;28;20040;-62
2022/03/08 08:24:49;;;;;;;13.18;8.00;;;21.20;48.20;;;;;;5028619;28;20045;-59
2022/03/08 08:27:53;;;;;;;7.43;5.13;;;20.90;48.70;;;;;;5031165;28;20511;-59
2022/03/08 08:30:57;;;;;;;5.93;4.10;;;21.70;48.90;;;;;;5027560;28;20492;-60
2022/03/08 08:34:01;;;;;;;5.47;4.13;;;23.70;47.90;;;;;;5030902;28;20480;-61
2022/03/08 08:37:05;;;;;;;7.28;3.75;;;24.40;45.80;;;;;;5029810;28;20392;-61
2022/03/08 08:40:11;;;;;;;5.45;3.72;;;24.30;45.10;;;;;;5029249;28;20040;-59
2022/03/08 08:43:15;;;;;;;5.30;4.07;;;23.40;44.20;;;;;;5024024;28;20404;-62
2022/03/08 08:46:19;;;;;;;6.40;3.95;;;23.10;44.70;;;;;;5030029;28;20056;-61
2022/03/08 08:49:25;;;;;;;5.22;4.18;;;22.40;45.00;;;;;;5030562;28;20040;-61
2022/03/08 08:52:28;;;;;;;9.75;5.93;;;22.00;45.00;;;;;;5030739;28;20032;-61
2022/03/08 08:55:34;;;;;;;9.63;5.38;;;21.90;44.70;;;;;;5027223;28;20052;-61
2022/03/08 08:58:38;;;;;;;8.90;5.38;;;21.00;44.80;;;;;;5024228;28;20045;-61
2022/03/08 09:01:42;;;;;;;8.77;5.30;;;20.60;46.00;;;;;;5029547;28;20610;-61
2022/03/08 09:04:46;;;;;;;8.05;4.43;;;20.60;45.10;;;;;;5026627;28;20049;-61
2022/03/08 09:07:52;;;;;;;5.53;4.35;;;19.70;46.10;;;;;;5024982;28;20483;-60
2022/03/08 09:10:56;;;;;;;6.53;4.32;;;21.00;46.10;;;;;;5030944;28;20041;-61
2022/03/08 09:13:59;;;;;;;10.98;4.45;;;22.30;44.80;;;;;;5027466;28;20302;-61
2022/03/08 09:17:04;;;;;;;7.50;4.32;;;21.70;44.40;;;;;;5030523;28;20056;-62
2022/03/08 09:20:09;;;;;;;7.05;4.20;;;22.60;44.60;;;;;;5029830;28;20131;-61
2022/03/08 09:23:15;;;;;;;7.93;4.40;;;24.40;44.00;;;;;;5023826;28;20041;-61
2022/03/08 09:26:19;;;;;;;6.35;4.88;;;22.70;43.50;;;;;;5026874;28;20044;-61
2022/03/08 09:29:24;;;;;;;8.45;4.35;;;21.40;45.30;;;;;;5024974;28;20044;-61
2022/03/08 09:32:27;;;;;;;6.95;4.70;;;22.10;44.90;;;;;;5027114;28;20040;-61
2022/03/08 09:35:32;;;;;;;4.93;4.25;;;23.20;44.40;;;;;;5028429;28;20036;-61
2022/03/08 09:38:38;;;;;;;8.70;5.03;;;23.00;43.30;;;;;;5027986;28;20037;-60
2022/03/08 09:41:43;;;;;;;8.40;6.22;;;24.30;42.80;;;;;;5027269;28;20052;-61
2022/03/08 09:44:48;;;;;;;6.28;4.57;;;25.20;43.30;;;;;;5028912;28;20037;-61
2022/03/08 09:47:53;;;;;;;6.38;4.15;;;26.20;42.50;;;;;;5022442;28;20396;-61
2022/03/08 09:51:01;;;;;;;5.15;3.80;;;27.60;41.40;;;;;;5028665;28;20049;-62
2022/03/08 09:54:06;;;;;;;5.70;3.97;;;27.30;41.50;;;;;;5027930;28;20052;-62
2022/03/08 09:57:12;;;;;;;5.57;3.67;;;26.80;41.20;;;;;;5028542;28;20045;-60
2022/03/08 10:00:16;;;;;;;6.15;4.15;;;26.00;39.50;;;;;;5027300;28;20060;-59
2022/03/08 10:03:33;;;;;;;6.28;4.55;;;22.00;43.00;;;;;;5025271;28;20084;-60
2022/03/08 10:06:42;;;;;;;5.30;3.70;;;19.10;45.10;;;;;;5027867;28;20040;-59
2022/03/08 10:09:58;;;;;;;7.18;4.35;;;19.60;44.50;;;;;;5026007;28;20045;-59
2022/03/08 10:13:03;;;;;;;7.32;4.40;;;18.30;46.60;;;;;;5027179;28;20464;-60
2022/03/08 10:16:11;;;;;;;10.60;7.72;;;18.10;45.20;;;;;;5023986;28;20503;-60
2022/03/08 10:19:16;;;;;;;7.95;4.05;;;18.00;45.80;;;;;;5023636;28;20040;-60
2022/03/08 10:22:29;;;;;;;7.68;4.15;;;18.90;46.00;;;;;;5026161;28;20056;-59
2022/03/08 10:25:33;;;;;;;13.05;6.00;;;18.80;44.50;;;;;;5024195;28;20083;-58
2022/03/08 10:28:45;;;;;;;11.23;7.45;;;18.90;45.20;;;;;;5024532;28;20044;-59
2022/03/08 10:31:49;;;;;;;4.30;3.20;;;19.70;44.90;;;;;;5027383;28;20041;-59
2022/03/08 10:34:59;;;;;;;4.97;3.58;;;19.20;44.60;;;;;;5025493;28;20508;-60
2022/03/08 10:38:05;;;;;;;4.60;3.22;;;18.50;44.40;;;;;;5020473;28;20052;-60
2022/03/08 10:41:19;;;;;;;6.38;3.78;;;18.30;45.70;;;;;;5024755;28;20041;-60
2022/03/08 10:44:32;;;;;;;4.82;3.70;;;17.80;45.70;;;;;;5025958;28;20040;-60
2022/03/08 10:47:51;;;;;;;5.80;3.60;;;19.60;45.40;;;;;;5021936;28;20041;-59
2022/03/08 10:50:56;;;;;;;4.50;3.30;;;20.40;44.10;;;;;;5027081;28;20578;-60
2022/03/08 10:54:14;;;;;;;7.07;4.28;;;16.40;46.50;;;;;;5025799;28;20040;-60
2022/03/08 10:57:18;;;;;;;8.50;3.92;;;16.70;48.00;;;;;;5022777;28;20060;-60
2022/03/08 11:00:23;;;;;;;4.88;3.10;;;17.20;47.00;;;;;;5023496;28;20040;-62
2022/03/08 11:03:27;;;;;;;5.32;3.60;;;19.50;45.30;;;;;;5028097;28;20048;-62
2022/03/08 11:06:31;;;;;;;11.85;3.10;;;22.20;43.70;;;;;;5022717;28;20036;-62
2022/03/08 11:09:36;;;;;;;5.43;3.20;;;23.30;42.50;;;;;;5021549;28;20044;-61
2022/03/08 11:12:41;;;;;;;5.50;2.95;;;23.20;41.80;;;;;;5015023;28;20037;-62
2022/03/08 11:15:45;;;;;;;3.83;3.20;;;22.60;41.50;;;;;;5017852;28;20428;-60
2022/03/08 11:18:50;;;;;;;5.00;3.50;;;21.20;42.70;;;;;;5023361;28;20052;-60
2022/03/08 11:21:58;;;;;;;4.95;3.42;;;18.90;44.50;;;;;;5016578;28;20040;-61
2022/03/08 11:25:05;;;;;;;5.13;3.65;;;19.30;43.70;;;;;;5025604;28;20060;-61
2022/03/08 11:28:10;;;;;;;5.35;3.05;;;20.00;44.30;;;;;;5024699;28;20488;-62
2022/03/08 11:31:22;;;;;;;6.85;3.35;;;22.30;43.00;;;;;;5024045;28;20041;-61
2022/03/08 11:34:37;;;;;;;3.97;2.92;;;22.40;41.80;;;;;;5023350;28;20048;-62
2022/03/08 11:37:47;;;;;;;6.47;3.03;;;23.80;41.80;;;;;;5023716;28;20033;-62
2022/03/08 11:40:53;;;;;;;5.65;3.90;;;25.70;41.40;;;;;;5025104;28;20044;-60
2022/03/08 11:43:58;;;;;;;6.22;3.60;;;25.90;40.40;;;;;;5030149;28;20404;-62
2022/03/08 11:47:10;;;;;;;4.68;3.83;;;25.60;41.60;;;;;;5027612;28;20483;-62
2022/03/08 11:50:32;;;;;;;4.30;3.58;;;24.90;41.10;;;;;;5025458;28;20037;-60
2022/03/08 11:53:39;;;;;;;5.05;3.30;;;24.50;41.60;;;;;;5031671;28;20044;-63
2022/03/08 11:56:46;;;;;;;4.07;3.33;;;26.50;41.10;;;;;;5030177;28;20491;-62
2022/03/08 12:00:27;;;;;;;4.70;3.35;;;26.20;41.40;;;;;;5027449;28;20049;-62
2022/03/08 12:03:31;;;;;;;4.88;3.38;;;26.70;41.20;;;;;;5025970;28;20033;-63
2022/03/08 12:06:38;;;;;;;3.65;3.03;;;27.10;40.90;;;;;;5026269;28;20073;-62
2022/03/08 12:09:42;;;;;;;4.78;3.10;;;27.70;39.80;;;;;;5028299;28;20037;-63
2022/03/08 12:12:46;;;;;;;3.97;2.40;;;27.50;39.70;;;;;;5024607;28;20048;-62
2022/03/08 12:16:25;;;;;;;3.40;2.42;;;26.80;39.50;;;;;;5024688;28;20040;-62
2022/03/08 12:19:33;;;;;;;4.53;2.65;;;27.60;38.60;;;;;;5020640;28;20053;-62
2022/03/08 12:22:40;;;;;;;3.72;2.30;;;27.00;39.20;;;;;;5022706;28;20477;-62
2022/03/08 12:26:24;;;;;;;3.38;2.45;;;27.00;39.30;;;;;;5019789;28;20057;-63
2022/03/08 12:29:46;;;;;;;4.28;2.70;;;27.70;39.10;;;;;;5022617;28;20045;-63
2022/03/08 12:32:56;;;;;;;4.50;3.22;;;28.10;39.40;;;;;;5018175;28;20048;-62
2022/03/08 12:36:00;;;;;;;3.58;2.90;;;27.40;38.10;;;;;;5028074;28;20120;-60
2022/03/08 12:39:04;;;;;;;2.63;2.30;;;23.20;38.10;;;;;;5025934;28;20044;-60
2022/03/08 12:42:26;;;;;;;5.45;2.67;;;21.70;39.80;;;;;;5027685;28;20052;-60
2022/03/08 12:45:33;;;;;;;;;;;20.70;42.40;;;;;;5028257;28;20049;-60
2022/03/08 12:48:38;;;;;;;3.67;2.72;;;22.00;40.50;;;;;;5024235;28;19917;-61
2022/03/08 12:51:42;;;;;;;4.78;3.13;;;21.40;42.00;;;;;;5022080;28;20048;-61
2022/03/08 12:54:47;;;;;;;6.53;2.90;;;20.70;42.90;;;;;;5025088;28;20053;-60
2022/03/08 12:57:56;;;;;;;4.28;2.58;;;21.30;40.30;;;;;;5022102;28;20049;-61
2022/03/08 13:01:06;;;;;;;3.67;2.38;;;21.40;42.10;;;;;;5020886;28;20483;-59
2022/03/08 13:04:23;;;;;;;6.03;2.58;;;21.40;41.20;;;;;;5021298;28;20045;-59
2022/03/08 13:07:28;;;;;;;4.35;2.50;;;21.10;42.10;;;;;;5024519;28;20052;-59
2022/03/08 13:10:33;;;;;;;4.22;2.88;;;20.70;42.80;;;;;;5025591;28;20053;-59
2022/03/08 13:13:39;;;;;;;4.50;3.10;;;18.90;44.30;;;;;;5022519;28;20060;-60
2022/03/08 13:16:43;;;;;;;4.75;2.65;;;19.30;43.90;;;;;;5029946;28;20048;-60
2022/03/08 13:19:47;;;;;;;6.70;2.65;;;19.40;43.10;;;;;;5025725;28;20040;-60
2022/03/08 13:22:53;;;;;;;5.20;2.70;;;18.90;43.90;;;;;;5031051;28;20044;-61
2022/03/08 13:25:58;;;;;;;3.72;2.85;;;19.20;42.70;;;;;;5025416;28;20073;-60
2022/03/08 13:29:03;;;;;;;3.92;2.78;;;19.70;43.80;;;;;;5030710;28;20384;-59
2022/03/08 13:32:08;;;;;;;6.00;2.60;;;19.20;43.60;;;;;;5020535;28;20342;-59
2022/03/08 13:35:12;;;;;;;5.28;3.33;;;18.00;44.10;;;;;;5027200;28;20051;-61
2022/03/08 13:38:41;;;;;;;6.25;4.25;;;18.40;45.70;;;;;;5026111;28;20057;-62
2022/03/08 13:41:45;;;;;;;7.53;4.50;;;20.80;43.20;;;;;;5024951;28;20044;-59
2022/03/08 13:44:50;;;;;;;4.30;3.17;;;21.20;42.70;;;;;;5027791;28;20503;-59
2022/03/08 13:47:56;;;;;;;4.18;3.20;;;20.10;43.10;;;;;;5018001;28;20056;-59
2022/03/08 13:51:03;;;;;;;5.22;3.35;;;18.50;43.80;;;;;;5024296;28;20036;-59
2022/03/08 13:54:09;;;;;;;5.47;3.10;;;17.40;45.00;;;;;;5020653;28;20040;-60
2022/03/08 13:57:14;;;;;;;5.70;3.33;;;17.90;45.70;;;;;;5023278;28;20045;-59
2022/03/08 14:00:18;;;;;;;14.90;3.75;;;17.30;44.70;;;;;;5028101;28;20044;-60
2022/03/08 14:03:22;;;;;;;6.18;3.00;;;17.00;45.70;;;;;;5022068;28;20299;-60
2022/03/08 14:06:33;;;;;;;3.25;2.80;;;16.30;46.20;;;;;;5022313;28;20060;-62
2022/03/08 14:09:37;;;;;;;4.05;3.08;;;15.00;45.80;;;;;;5023740;28;20488;-61
2022/03/08 14:12:44;;;;;;;3.35;2.72;;;14.70;46.70;;;;;;5021301;28;20044;-60
2022/03/08 14:16:02;;;;;;;7.32;3.63;;;15.10;47.40;;;;;;5021063;28;20056;-61
2022/03/08 14:19:06;;;;;;;4.05;2.90;;;15.40;46.60;;;;;;5020937;28;20052;-60
2022/03/08 14:22:10;;;;;;;4.45;2.97;;;16.20;46.50;;;;;;5021541;28;20517;-59
2022/03/08 14:25:14;;;;;;;5.35;2.95;;;16.90;44.70;;;;;;5029716;28;20052;-59
2022/03/08 14:28:18;;;;;;;6.75;3.10;;;15.40;45.80;;;;;;5022037;28;20376;-60
2022/03/08 14:31:30;;;;;;;4.97;3.10;;;15.10;46.90;;;;;;5028251;28;20048;-60
2022/03/08 14:34:36;;;;;;;9.13;4.53;;;15.30;47.30;;;;;;5025174;28;20053;-59
2022/03/08 14:37:41;;;;;;;5.10;2.97;;;16.10;45.70;;;;;;5022481;28;20044;-59
2022/03/08 14:40:45;;;;;;;4.35;3.05;;;16.80;44.90;;;;;;5029184;28;20491;-59
2022/03/08 14:43:49;;;;;;;5.72;2.92;;;15.50;45.80;;;;;;5018996;28;20052;-58
2022/03/08 14:46:53;;;;;;;9.13;3.42;;;15.20;44.90;;;;;;5021006;28;20082;-60
2022/03/08 14:50:00;;;;;;;6.55;4.43;;;15.40;44.60;;;;;;5025809;28;20045;-60
2022/03/08 14:53:04;;;;;;;5.13;3.03;;;15.90;45.10;;;;;;5020466;28;20044;-59
2022/03/08 14:56:08;;;;;;;5.00;3.35;;;15.70;45.20;;;;;;5029586;28;20052;-59
2022/03/08 14:59:13;;;;;;;5.78;3.08;;;15.60;43.90;;;;;;5029530;28;20064;-59
2022/03/08 15:02:19;;;;;;;7.20;3.95;;;15.90;44.10;;;;;;5020606;28;20052;-59
2022/03/08 15:05:23;;;;;;;7.60;4.93;;;15.00;44.80;;;;;;5024379;28;20044;-59
2022/03/08 15:08:27;;;;;;;6.53;3.58;;;15.20;45.80;;;;;;5026559;28;20484;-60
2022/03/08 15:11:32;;;;;;;4.80;3.13;;;15.60;44.70;;;;;;5015281;28;20041;-59
2022/03/08 15:14:36;;;;;;;6.22;3.90;;;15.10;45.10;;;;;;5026511;28;20044;-59
2022/03/08 15:17:40;;;;;;;4.50;3.15;;;14.70;46.10;;;;;;5025086;28;20052;-59
2022/03/08 15:20:44;;;;;;;4.78;2.85;;;14.20;46.20;;;;;;5026009;28;20048;-59
2022/03/08 15:23:48;;;;;;;4.30;3.10;;;13.80;47.40;;;;;;5027659;28;20052;-59
2022/03/08 15:26:53;;;;;;;4.40;2.92;;;13.30;48.00;;;;;;5022134;28;20048;-59
2022/03/08 15:29:58;;;;;;;5.85;3.92;;;12.90;46.40;;;;;;5025047;28;20036;-61
2022/03/08 15:33:02;;;;;;;7.30;4.32;;;12.20;48.70;;;;;;5029905;28;20040;-62
2022/03/08 15:36:08;;;;;;;6.25;3.40;;;12.10;49.60;;;;;;5024516;28;20492;-61
2022/03/08 15:39:12;;;;;;;7.80;4.55;;;11.90;49.00;;;;;;5023152;28;20052;-61
2022/03/08 15:42:16;;;;;;;8.13;4.03;;;11.50;50.00;;;;;;5021693;28;20488;-59
2022/03/08 15:45:20;;;;;;;5.60;3.63;;;10.70;51.30;;;;;;5017081;28;20041;-58
2022/03/08 15:48:24;;;;;;;7.88;3.83;;;10.40;50.90;;;;;;5028439;28;20049;-62
2022/03/08 15:51:28;;;;;;;5.05;3.40;;;10.30;52.10;;;;;;5024094;28;20048;-62
2022/03/08 15:54:32;;;;;;;8.30;3.88;;;10.40;51.60;;;;;;5010627;28;20048;-58
2022/03/08 15:57:37;;;;;;;6.60;3.40;;;10.00;52.10;;;;;;5018741;28;20061;-58
2022/03/08 16:00:42;;;;;;;4.03;2.65;;;9.90;53.10;;;;;;5021769;28;20037;-59